createdAt,value
2022-11-16T00:02:07.105Z,10.83
2022-11-16T00:04:33.715Z,10.84
2022-11-16T00:07:02.826Z,10.82
2022-11-16T00:09:32.064Z,10.83
2022-11-16T00:12:01.680Z,10.84
2022-11-16T00:14:30.455Z,10.84
2022-11-16T00:16:57.778Z,10.83
2022-11-16T00:19:25.440Z,10.86
2022-11-16T00:21:52.570Z,10.87
2022-11-16T00:24:20.691Z,10.87
2022-11-16T00:26:47.888Z,10.87
2022-11-16T00:29:16.243Z,10.88
2022-11-16T00:31:42.810Z,10.89
2022-11-16T00:34:09.288Z,10.88
2022-11-16T00:36:35.847Z,10.88
2022-11-16T00:39:02.487Z,10.88
2022-11-16T00:41:29.095Z,10.88
2022-11-16T00:43:55.631Z,10.88
2022-11-16T00:46:22.228Z,10.89
2022-11-16T00:48:48.705Z,10.89
2022-11-16T00:51:15.171Z,10.89
2022-11-16T00:53:41.757Z,10.89
2022-11-16T00:56:08.268Z,10.91
2022-11-16T00:58:34.884Z,10.91
2022-11-16T01:01:09.280Z,10.92
2022-11-16T01:03:36.469Z,10.93
2022-11-16T01:06:05.741Z,10.93
2022-11-16T01:08:33.309Z,10.90
2022-11-16T01:11:20.129Z,10.90
2022-11-16T01:13:47.296Z,10.90
2022-11-16T01:16:18.423Z,10.89
2022-11-16T01:18:48.935Z,10.92
2022-11-16T01:21:15.778Z,10.93
2022-11-16T01:23:42.417Z,10.93
2022-11-16T01:26:09.098Z,10.93
2022-11-16T01:28:36.143Z,10.94
2022-11-16T01:31:02.823Z,10.95
2022-11-16T01:33:29.510Z,10.94
2022-11-16T01:35:56.069Z,10.93
2022-11-16T01:38:27.125Z,10.94
2022-11-16T01:40:55.943Z,10.95
2022-11-16T01:43:27.173Z,10.94
2022-11-16T01:45:54.030Z,10.94
2022-11-16T01:48:25.946Z,10.95
2022-11-16T01:50:56.293Z,10.95
2022-11-16T01:53:24.565Z,10.94
2022-11-16T01:55:52.023Z,10.94
2022-11-16T01:58:21.149Z,10.95
2022-11-16T02:00:49.112Z,10.96
2022-11-16T02:03:20.220Z,10.98
2022-11-16T02:05:55.816Z,10.97
2022-11-16T02:09:01.321Z,10.97
2022-11-16T02:12:01.303Z,10.98
2022-11-16T02:14:47.801Z,10.99
2022-11-16T02:17:28.964Z,10.99
2022-11-16T02:20:33.058Z,10.99
2022-11-16T02:23:27.432Z,10.98
2022-11-16T02:26:01.100Z,10.97
2022-11-16T02:28:46.028Z,10.98
2022-11-16T02:31:17.373Z,10.98
2022-11-16T02:33:46.810Z,10.99
2022-11-16T02:36:18.782Z,11.00
2022-11-16T02:39:04.143Z,10.99
2022-11-16T02:41:35.050Z,10.99
2022-11-16T02:44:25.409Z,10.99
2022-11-16T02:46:56.930Z,11.00
2022-11-16T02:49:25.275Z,11.01
2022-11-16T02:51:53.076Z,11.02
2022-11-16T02:54:21.647Z,11.02
2022-11-16T02:56:56.097Z,11.00
2022-11-16T02:59:24.982Z,10.99
2022-11-16T03:02:00.476Z,11.02
2022-11-16T03:04:33.909Z,11.00
2022-11-16T03:07:03.776Z,10.99
2022-11-16T03:09:34.133Z,11.03
2022-11-16T03:12:05.852Z,11.03
2022-11-16T03:14:38.357Z,11.01
2022-11-16T03:17:10.653Z,11.02
2022-11-16T03:19:44.065Z,11.02
2022-11-16T03:22:26.546Z,11.03
2022-11-16T03:24:53.575Z,11.02
2022-11-16T03:27:55.006Z,11.00
2022-11-16T03:30:24.285Z,11.00
2022-11-16T03:33:00.429Z,10.99
2022-11-16T03:35:32.649Z,10.97
2022-11-16T03:38:01.712Z,10.97
2022-11-16T03:40:31.786Z,10.95
2022-11-16T03:43:01.144Z,10.95
2022-11-16T03:45:28.776Z,10.92
2022-11-16T03:47:55.247Z,10.93
2022-11-16T03:50:21.823Z,10.90
2022-11-16T03:52:48.484Z,10.91
2022-11-16T03:55:15.102Z,10.89
2022-11-16T03:57:41.603Z,10.88
2022-11-16T04:00:09.548Z,10.86
2022-11-16T04:02:36.067Z,10.86
2022-11-16T04:05:32.027Z,10.85
2022-11-16T04:08:17.252Z,10.83
2022-11-16T04:11:03.172Z,10.82
2022-11-16T04:13:50.633Z,10.81
2022-11-16T04:16:35.802Z,10.79
2022-11-16T04:19:20.997Z,10.77
2022-11-16T04:22:11.009Z,10.74
2022-11-16T04:24:41.848Z,10.73
2022-11-16T04:27:32.753Z,10.70
2022-11-16T04:30:01.142Z,10.67
2022-11-16T04:32:46.240Z,10.67
2022-11-16T04:35:31.510Z,10.63
2022-11-16T04:37:59.326Z,10.62
2022-11-16T04:40:30.390Z,10.59
2022-11-16T04:43:01.716Z,10.57
2022-11-16T04:45:46.770Z,10.55
2022-11-16T04:48:15.337Z,10.53
2022-11-16T04:50:43.574Z,10.51
2022-11-16T04:53:10.643Z,10.52
2022-11-16T04:55:37.520Z,10.48
2022-11-16T04:58:04.994Z,10.45
2022-11-16T05:00:32.280Z,10.42
2022-11-16T05:03:01.572Z,10.39
2022-11-16T05:05:28.524Z,10.34
2022-11-16T05:07:55.015Z,10.32
2022-11-16T05:10:21.571Z,10.30
2022-11-16T05:12:48.064Z,10.26
2022-11-16T05:15:14.556Z,10.25
2022-11-16T05:17:41.019Z,10.23
2022-11-16T05:20:26.866Z,10.18
2022-11-16T05:22:57.598Z,10.15
2022-11-16T05:25:24.344Z,10.14
2022-11-16T05:27:50.859Z,10.13
2022-11-16T05:30:17.909Z,10.13
2022-11-16T05:32:44.678Z,10.10
2022-11-16T05:35:11.120Z,10.08
2022-11-16T05:37:37.581Z,10.06
2022-11-16T05:40:04.842Z,10.04
2022-11-16T05:42:31.468Z,10.01
2022-11-16T05:44:57.973Z,10.01
2022-11-16T05:47:24.473Z,9.99
2022-11-16T05:49:50.904Z,9.99
2022-11-16T05:52:17.424Z,9.97
2022-11-16T05:54:43.875Z,9.96
2022-11-16T05:57:10.504Z,9.93
2022-11-16T05:59:37.052Z,9.93
2022-11-16T06:02:04.835Z,9.95
2022-11-16T06:04:32.456Z,9.92
2022-11-16T06:06:59.115Z,9.89
2022-11-16T06:09:25.659Z,9.87
2022-11-16T06:11:52.228Z,9.85
2022-11-16T06:14:18.835Z,9.85
2022-11-16T06:16:45.903Z,9.81
2022-11-16T06:19:12.362Z,9.79
2022-11-16T06:21:38.856Z,9.77
2022-11-16T06:24:08.961Z,9.76
2022-11-16T06:26:36.321Z,9.71
2022-11-16T06:29:03.248Z,9.71
2022-11-16T06:31:30.076Z,9.66
2022-11-16T06:33:56.681Z,9.64
2022-11-16T06:36:23.190Z,9.63
2022-11-16T06:38:49.807Z,9.60
2022-11-16T06:41:16.412Z,9.59
2022-11-16T06:43:42.870Z,9.57
2022-11-16T06:46:09.371Z,9.54
2022-11-16T06:48:36.243Z,9.51
2022-11-16T06:51:03.024Z,9.46
2022-11-16T06:53:29.783Z,9.43
2022-11-16T06:56:01.133Z,9.41
2022-11-16T06:58:30.325Z,9.34
2022-11-16T07:00:57.607Z,9.32
2022-11-16T07:03:24.232Z,9.29
2022-11-16T07:05:50.807Z,9.27
2022-11-16T07:08:17.302Z,9.22
2022-11-16T07:10:43.762Z,9.17
2022-11-16T07:13:10.307Z,9.15
2022-11-16T07:15:36.857Z,9.12
2022-11-16T07:18:05.578Z,9.11
2022-11-16T07:20:32.698Z,9.07
2022-11-16T07:23:00.932Z,9.00
2022-11-16T07:25:27.569Z,8.97
2022-11-16T07:27:54.059Z,8.94
2022-11-16T07:30:20.558Z,8.92
2022-11-16T07:32:47.016Z,8.91
2022-11-16T07:35:13.527Z,8.91
2022-11-16T07:37:39.985Z,8.87
2022-11-16T07:40:07.224Z,8.83
2022-11-16T07:42:33.731Z,8.83
2022-11-16T07:45:00.189Z,8.83
2022-11-16T07:47:26.659Z,8.82
2022-11-16T07:49:53.218Z,8.82
2022-11-16T07:52:19.642Z,8.80
2022-11-16T07:54:46.177Z,8.80
2022-11-16T07:57:12.651Z,8.78
2022-11-16T07:59:39.141Z,8.79
2022-11-16T08:02:05.808Z,8.79
2022-11-16T08:04:32.399Z,8.79
2022-11-16T08:06:58.935Z,8.77
2022-11-16T08:09:25.428Z,8.77
2022-11-16T08:11:51.961Z,8.77
2022-11-16T08:14:19.235Z,8.77
2022-11-16T08:16:46.155Z,8.77
2022-11-16T08:19:12.889Z,8.76
2022-11-16T08:21:39.425Z,8.79
2022-11-16T08:24:06.246Z,8.79
2022-11-16T08:26:32.705Z,8.78
2022-11-16T08:28:59.301Z,8.77
2022-11-16T08:31:27.841Z,8.78
2022-11-16T08:33:54.842Z,8.79
2022-11-16T08:36:21.628Z,8.83
2022-11-16T08:38:49.928Z,8.85
2022-11-16T08:41:17.796Z,8.86
2022-11-16T08:43:47.027Z,8.89
2022-11-16T08:46:14.244Z,8.90
2022-11-16T08:48:40.858Z,8.91
2022-11-16T08:51:17.868Z,8.95
2022-11-16T08:53:45.457Z,9.01
2022-11-16T08:56:13.709Z,9.02
2022-11-16T08:58:46.770Z,9.03
2022-11-16T09:01:19.706Z,9.03
2022-11-16T09:03:46.470Z,9.06
2022-11-16T09:06:13.534Z,9.10
2022-11-16T09:08:41.785Z,9.14
2022-11-16T09:11:11.785Z,9.15
2022-11-16T09:13:38.414Z,9.18
2022-11-16T09:16:05.783Z,9.27
2022-11-16T09:18:33.031Z,9.31
2022-11-16T09:20:59.866Z,9.30
2022-11-16T09:23:26.494Z,9.31
2022-11-16T09:25:54.604Z,9.36
2022-11-16T09:28:22.205Z,9.38
2022-11-16T09:30:50.948Z,9.45
2022-11-16T09:33:17.576Z,9.49
2022-11-16T09:35:44.144Z,9.56
2022-11-16T09:38:12.739Z,9.62
2022-11-16T09:40:46.144Z,9.73
2022-11-16T09:43:57.845Z,9.88
2022-11-16T09:46:39.682Z,9.90
2022-11-16T09:49:25.972Z,9.96
2022-11-16T09:51:58.100Z,9.96
2022-11-16T09:54:28.801Z,9.96
2022-11-16T09:56:59.961Z,9.93
2022-11-16T09:59:41.179Z,9.95
2022-11-16T10:02:25.286Z,9.99
2022-11-16T10:05:00.837Z,10.03
2022-11-16T10:07:41.770Z,10.05
2022-11-16T10:10:30.252Z,10.06
2022-11-16T10:13:18.578Z,10.06
2022-11-16T10:16:18.453Z,10.03
2022-11-16T10:18:50.981Z,10.02
2022-11-16T10:21:33.019Z,10.08
2022-11-16T10:24:14.608Z,10.07
2022-11-16T10:26:56.515Z,10.10
2022-11-16T10:30:01.602Z,10.10
2022-11-16T10:32:29.563Z,10.11
2022-11-16T10:35:03.378Z,10.10
2022-11-16T10:37:32.313Z,10.13
2022-11-16T10:39:58.940Z,10.16
2022-11-16T10:42:39.207Z,10.18
2022-11-16T10:45:11.436Z,10.21
2022-11-16T10:47:44.801Z,10.25
2022-11-16T10:50:36.124Z,10.27
2022-11-16T10:53:02.768Z,10.26
2022-11-16T10:55:29.402Z,10.29
2022-11-16T10:58:04.485Z,10.34
2022-11-16T11:00:36.964Z,10.31
2022-11-16T11:03:03.868Z,10.37
2022-11-16T11:05:30.990Z,10.53
2022-11-16T11:08:02.400Z,10.52
2022-11-16T11:10:36.437Z,10.44
2022-11-16T11:13:11.167Z,10.53
2022-11-16T11:15:42.485Z,10.77
2022-11-16T11:18:21.546Z,10.86
2022-11-16T11:20:52.145Z,10.91
2022-11-16T11:23:24.138Z,10.73
2022-11-16T11:25:59.302Z,10.65
2022-11-16T11:28:32.516Z,10.73
2022-11-16T11:31:03.860Z,10.78
2022-11-16T11:33:38.006Z,10.84
2022-11-16T11:36:06.835Z,10.85
2022-11-16T11:38:35.760Z,10.88
2022-11-16T11:41:05.222Z,10.90
2022-11-16T11:43:34.301Z,10.95
2022-11-16T11:46:13.908Z,10.97
2022-11-16T11:48:53.258Z,11.04
2022-11-16T11:51:27.581Z,11.04
2022-11-16T11:54:02.795Z,11.06
2022-11-16T11:56:32.038Z,11.08
2022-11-16T11:58:58.653Z,11.11
2022-11-16T12:01:40.475Z,11.16
2022-11-16T12:04:28.314Z,11.01
2022-11-16T12:07:17.841Z,10.91
2022-11-16T12:10:16.387Z,10.89
2022-11-16T12:13:13.294Z,10.97
2022-11-16T12:15:55.683Z,11.04
2022-11-16T12:18:40.912Z,11.09
2022-11-16T12:21:17.956Z,11.13
2022-11-16T12:24:06.339Z,11.16
2022-11-16T12:26:32.932Z,11.08
2022-11-16T12:29:19.718Z,11.07
2022-11-16T12:31:59.150Z,11.10
2022-11-16T12:35:07.643Z,11.18
2022-11-16T12:37:56.843Z,11.33
2022-11-16T12:41:10.472Z,11.39
2022-11-16T12:43:44.614Z,11.41
2022-11-16T12:46:29.345Z,11.45
2022-11-16T12:49:32.814Z,11.66
2022-11-16T12:52:23.725Z,11.90
2022-11-16T12:55:27.969Z,11.99
2022-11-16T12:58:00.533Z,12.05
2022-11-16T13:00:29.756Z,11.94
2022-11-16T13:03:12.188Z,11.88
2022-11-16T13:06:03.505Z,11.84
2022-11-16T13:08:47.089Z,11.78
2022-11-16T13:11:16.355Z,11.71
2022-11-16T13:13:51.515Z,11.71
2022-11-16T13:16:21.221Z,11.70
2022-11-16T13:18:48.179Z,11.74
2022-11-16T13:21:32.777Z,11.74
2022-11-16T13:24:18.624Z,11.73
2022-11-16T13:26:56.408Z,11.71
2022-11-16T13:29:43.219Z,11.70
2022-11-16T13:32:19.630Z,11.73
2022-11-16T13:34:47.108Z,11.72
2022-11-16T13:37:39.899Z,11.69
2022-11-16T13:40:06.325Z,11.69
2022-11-16T13:42:58.486Z,11.64
2022-11-16T13:45:28.004Z,11.65
2022-11-16T13:47:58.071Z,11.51
2022-11-16T13:50:37.481Z,11.35
2022-11-16T13:56:07.798Z,11.08
2022-11-16T13:58:37.461Z,11.01
2022-11-16T14:01:10.955Z,10.97
2022-11-16T14:03:42.832Z,10.93
2022-11-16T14:06:24.471Z,10.92
2022-11-16T14:08:55.451Z,10.89
2022-11-16T14:11:36.690Z,10.90
2022-11-16T14:14:24.387Z,10.93
2022-11-16T14:16:51.675Z,11.04
2022-11-16T14:19:44.637Z,11.06
2022-11-16T14:22:41.460Z,11.04
2022-11-16T14:25:26.790Z,10.99
2022-11-16T14:28:15.118Z,10.91
2022-11-16T14:31:09.832Z,10.79
2022-11-16T14:33:38.013Z,10.72
2022-11-16T14:36:07.877Z,10.65
2022-11-16T14:38:38.452Z,10.62
2022-11-16T14:41:07.304Z,10.55
2022-11-16T14:43:44.451Z,10.53
2022-11-16T14:46:19.967Z,10.57
2022-11-16T14:48:47.337Z,10.66
2022-11-16T14:51:20.453Z,10.73
2022-11-16T14:53:52.485Z,10.76
2022-11-16T14:56:19.692Z,10.75
2022-11-16T14:59:02.014Z,10.69
2022-11-16T15:01:35.818Z,10.63
2022-11-16T15:04:06.041Z,10.58
2022-11-16T15:06:40.799Z,10.49
2022-11-16T15:09:07.674Z,10.40
2022-11-16T15:11:57.755Z,10.32
2022-11-16T15:14:29.632Z,10.21
2022-11-16T15:16:59.040Z,10.13
2022-11-16T15:19:28.588Z,10.05
2022-11-16T15:21:58.358Z,9.97
2022-11-16T15:24:31.557Z,9.92
2022-11-16T15:27:26.736Z,9.86
2022-11-16T15:29:53.498Z,9.79
2022-11-16T15:32:20.095Z,9.74
2022-11-16T15:34:51.675Z,9.70
2022-11-16T15:37:30.981Z,9.63
2022-11-16T15:39:59.121Z,9.57
2022-11-16T15:42:27.926Z,9.52
2022-11-16T15:44:55.744Z,9.48
2022-11-16T15:47:23.084Z,9.39
2022-11-16T15:49:52.935Z,9.33
2022-11-16T15:52:43.805Z,9.27
2022-11-16T15:55:24.403Z,9.21
2022-11-16T15:58:00.996Z,9.16
2022-11-16T16:00:28.959Z,9.10
2022-11-16T16:03:04.661Z,9.05
2022-11-16T16:05:36.836Z,8.98
2022-11-16T16:08:04.206Z,8.94
2022-11-16T16:10:30.874Z,8.91
2022-11-16T16:12:59.691Z,8.81
2022-11-16T16:15:33.765Z,8.78
2022-11-16T16:18:01.704Z,8.77
2022-11-16T16:20:30.811Z,8.76
2022-11-16T16:23:15.206Z,8.73
2022-11-16T16:25:46.034Z,8.71
2022-11-16T16:28:16.584Z,8.66
2022-11-16T16:30:43.158Z,8.67
2022-11-16T16:33:18.912Z,8.63
2022-11-16T16:35:49.622Z,8.57
2022-11-16T16:38:16.204Z,8.57
2022-11-16T16:40:42.711Z,8.53
2022-11-16T16:43:09.180Z,8.50
2022-11-16T16:45:38.760Z,8.49
2022-11-16T16:48:06.261Z,8.46
2022-11-16T16:50:33.001Z,8.44
2022-11-16T16:52:59.462Z,8.45
2022-11-16T16:55:26.249Z,8.46
2022-11-16T16:57:56.526Z,8.43
2022-11-16T17:00:23.451Z,8.38
2022-11-16T17:02:50.015Z,8.38
2022-11-16T17:05:16.608Z,8.37
2022-11-16T17:07:43.090Z,8.35
2022-11-16T17:10:09.862Z,8.34
2022-11-16T17:12:36.467Z,8.33
2022-11-16T17:15:03.425Z,8.33
2022-11-16T17:17:29.925Z,8.28
2022-11-16T17:19:56.441Z,8.29
2022-11-16T17:22:22.987Z,8.27
2022-11-16T17:24:49.453Z,8.27
2022-11-16T17:27:16.009Z,8.22
2022-11-16T17:29:42.531Z,8.20
2022-11-16T17:32:09.057Z,8.18
2022-11-16T17:34:35.702Z,8.13
2022-11-16T17:37:02.127Z,8.12
2022-11-16T17:39:28.603Z,8.09
2022-11-16T17:41:55.220Z,8.06
2022-11-16T17:44:22.353Z,8.03
2022-11-16T17:46:49.351Z,8.00
2022-11-16T17:49:15.779Z,7.98
2022-11-16T17:51:42.677Z,7.97
2022-11-16T17:54:09.172Z,7.95
2022-11-16T17:56:35.666Z,7.93
2022-11-16T17:59:02.122Z,7.92
2022-11-16T18:01:28.747Z,7.89
2022-11-16T18:03:55.488Z,7.86
2022-11-16T18:06:24.073Z,7.83
2022-11-16T18:08:51.522Z,7.84
2022-11-16T18:11:21.053Z,7.84
2022-11-16T18:13:51.420Z,7.85
2022-11-16T18:16:21.023Z,7.89
2022-11-16T18:18:48.519Z,7.90
2022-11-16T18:21:20.768Z,7.93
2022-11-16T18:23:47.873Z,7.96
2022-11-16T18:26:17.153Z,8.01
2022-11-16T18:28:48.129Z,8.07
2022-11-16T18:31:17.075Z,8.13
2022-11-16T18:33:43.978Z,8.17
2022-11-16T18:36:12.132Z,8.21
2022-11-16T18:38:38.896Z,8.22
2022-11-16T18:41:12.351Z,8.24
2022-11-16T18:43:48.501Z,8.24
2022-11-16T18:46:15.255Z,8.23
2022-11-16T18:48:42.840Z,8.19
2022-11-16T18:51:10.571Z,8.19
2022-11-16T18:53:37.999Z,8.20
2022-11-16T18:56:05.374Z,8.19
2022-11-16T19:01:20.467Z,8.16
2022-11-16T19:03:46.981Z,8.12
2022-11-16T19:06:15.614Z,8.12
2022-11-16T19:08:44.182Z,8.10
2022-11-16T19:11:13.847Z,8.08
2022-11-16T19:13:42.234Z,8.09
2022-11-16T19:16:10.357Z,8.08
2022-11-16T19:18:36.928Z,8.09
2022-11-16T19:21:09.012Z,8.10
2022-11-16T19:23:37.782Z,8.08
2022-11-16T19:26:05.185Z,8.10
2022-11-16T19:28:35.751Z,8.12
2022-11-16T19:31:29.454Z,8.16
2022-11-16T19:33:58.301Z,8.19
2022-11-16T19:36:25.870Z,8.22
2022-11-16T19:38:52.882Z,8.24
2022-11-16T19:41:23.210Z,8.28
2022-11-16T19:43:57.351Z,8.31
2022-11-16T19:46:27.268Z,8.30
2022-11-16T19:48:54.906Z,8.28
2022-11-16T19:51:30.133Z,8.32
2022-11-16T19:53:59.164Z,8.34
2022-11-16T19:56:25.710Z,8.35
2022-11-16T19:58:52.257Z,8.37
2022-11-16T20:01:36.925Z,8.42
2022-11-16T20:04:03.929Z,8.46
2022-11-16T20:06:33.167Z,8.49
2022-11-16T20:09:04.126Z,8.49
2022-11-16T20:11:33.727Z,8.48
2022-11-16T20:14:01.380Z,8.48
2022-11-16T20:16:37.005Z,8.50
2022-11-16T20:19:05.351Z,8.48
2022-11-16T20:21:35.112Z,8.46
2022-11-16T20:24:06.867Z,8.48
2022-11-16T20:26:34.997Z,8.53
2022-11-16T20:29:01.668Z,8.60
2022-11-16T20:31:30.680Z,8.61
2022-11-16T20:34:05.512Z,8.61
2022-11-16T20:36:33.094Z,8.60
2022-11-16T20:39:00.492Z,8.61
2022-11-16T20:41:29.562Z,8.62
2022-11-16T20:43:58.281Z,8.67
2022-11-16T20:46:27.210Z,8.70
2022-11-16T20:48:55.852Z,8.74
2022-11-16T20:51:22.867Z,8.73
2022-11-16T20:53:50.090Z,8.74
2022-11-16T20:56:19.267Z,8.71
2022-11-16T20:58:47.083Z,8.71
2022-11-16T21:01:16.638Z,8.72
2022-11-16T21:03:44.613Z,8.73
2022-11-16T21:06:14.999Z,8.71
2022-11-16T21:08:41.714Z,8.69
2022-11-16T21:11:17.163Z,8.72
2022-11-16T21:14:03.634Z,8.79
2022-11-16T21:16:30.465Z,8.79
2022-11-16T21:18:57.156Z,8.81
2022-11-16T21:21:25.219Z,8.80
2022-11-16T21:23:52.297Z,8.80
2022-11-16T21:26:24.003Z,8.82
2022-11-16T21:28:50.519Z,8.85
2022-11-16T21:31:19.867Z,8.84
2022-11-16T21:33:47.393Z,8.81
2022-11-16T21:36:17.129Z,8.83
2022-11-16T21:38:43.986Z,8.86
2022-11-16T21:41:11.928Z,8.86
2022-11-16T21:43:41.819Z,8.84
2022-11-16T21:46:12.086Z,8.83
2022-11-16T21:48:41.755Z,8.82
2022-11-16T21:51:10.961Z,8.81
2022-11-16T21:53:38.746Z,8.80
2022-11-16T21:56:07.008Z,8.79
2022-11-16T21:58:33.888Z,8.79
2022-11-16T22:01:02.305Z,8.77
2022-11-16T22:03:30.645Z,8.79
2022-11-16T22:06:20.891Z,8.79
2022-11-16T22:08:47.882Z,8.81
2022-11-16T22:11:15.576Z,8.82
2022-11-16T22:13:43.126Z,8.85
2022-11-16T22:16:11.976Z,8.84
2022-11-16T22:18:39.266Z,8.83
2022-11-16T22:21:06.214Z,8.83
2022-11-16T22:23:33.301Z,8.83
2022-11-16T22:26:04.761Z,8.87
2022-11-16T22:28:32.703Z,8.88
2022-11-16T22:31:12.814Z,8.89
2022-11-16T22:33:40.167Z,8.90
2022-11-16T22:36:09.298Z,8.92
2022-11-16T22:38:36.486Z,8.93
2022-11-16T22:41:03.478Z,8.93
2022-11-16T22:43:31.314Z,8.91
2022-11-16T22:45:58.938Z,8.93
2022-11-16T22:48:45.052Z,8.95
2022-11-16T22:51:16.831Z,8.95
2022-11-16T22:53:43.257Z,8.98
2022-11-16T22:56:10.753Z,9.01
2022-11-16T22:58:38.334Z,9.03
2022-11-16T23:01:07.471Z,9.02
2022-11-16T23:03:34.641Z,9.02
2022-11-16T23:06:01.950Z,9.01
2022-11-16T23:08:28.673Z,9.02
2022-11-16T23:11:20.447Z,9.01
2022-11-16T23:14:06.213Z,9.00
2022-11-16T23:16:33.275Z,9.00
2022-11-16T23:19:00.275Z,8.99
2022-11-16T23:21:45.840Z,8.98
2022-11-16T23:24:32.812Z,8.98
2022-11-16T23:27:21.231Z,8.97
2022-11-16T23:29:47.862Z,8.97
2022-11-16T23:32:14.346Z,8.96
2022-11-16T23:34:40.823Z,8.95
2022-11-16T23:37:07.945Z,8.95
2022-11-16T23:39:34.456Z,8.94
2022-11-16T23:42:19.695Z,8.93
2022-11-16T23:44:46.320Z,8.94
2022-11-16T23:47:12.967Z,8.93
2022-11-16T23:49:39.489Z,8.93
2022-11-16T23:52:06.006Z,8.93
2022-11-16T23:54:32.479Z,8.92
2022-11-16T23:56:59.134Z,8.92
2022-11-16T23:59:25.635Z,8.92
